Time;durP1;ratioP1;P1;durP2;ratioP2;P2;SDS_P1;SDS_P2;PMS_P1;PMS_P2;Temp;Humidity;BMP_temperature;BMP_pressure;BME280_temperature;BME280_humidity;BME280_pressure;Samples;Min_cycle;Max_cycle;Signal;HPM_P1;HPM_P2
2023/12/23 00:00:35;;;;;;;0.22;0.17;;;3.40;99.90;;;;;;5000530;28;20504;-65
2023/12/23 00:03:01;;;;;;;1.33;0.25;;;3.40;99.90;;;;;;5005747;28;20112;-65
2023/12/23 00:05:27;;;;;;;0.47;0.20;;;3.40;99.90;;;;;;5006906;28;20041;-65
2023/12/23 00:07:52;;;;;;;0.32;0.08;;;3.40;99.90;;;;;;5005684;28;20764;-65
2023/12/23 00:10:18;;;;;;;0.17;0.10;;;3.40;99.90;;;;;;5007663;28;20553;-65
2023/12/23 00:12:44;;;;;;;0.65;0.13;;;3.40;99.90;;;;;;5004869;28;20557;-65
2023/12/23 00:15:10;;;;;;;3.03;0.40;;;3.30;99.90;;;;;;5007193;28;20026;-65
2023/12/23 00:17:35;;;;;;;1.95;0.30;;;3.20;99.90;;;;;;5001456;28;20030;-65
2023/12/23 00:20:01;;;;;;;0.68;0.25;;;3.10;99.90;;;;;;5005076;28;20415;-64
2023/12/23 00:22:27;;;;;;;1.13;0.35;;;3.10;99.90;;;;;;5004250;28;20037;-65
2023/12/23 00:24:52;;;;;;;0.98;0.40;;;3.10;99.90;;;;;;4999868;28;20587;-65
2023/12/23 00:27:18;;;;;;;3.30;0.28;;;3.00;99.90;;;;;;5006374;28;20044;-66
2023/12/23 00:29:44;;;;;;;1.70;0.25;;;3.00;99.90;;;;;;5001531;28;20034;-65
2023/12/23 00:32:11;;;;;;;0.63;0.40;;;3.20;99.90;;;;;;5003866;28;20038;-65
2023/12/23 00:34:37;;;;;;;1.65;0.40;;;3.30;99.90;;;;;;5008153;28;20026;-64
2023/12/23 00:37:02;;;;;;;1.20;0.17;;;3.40;99.90;;;;;;5003582;28;20372;-65
2023/12/23 00:39:28;;;;;;;0.70;0.28;;;3.40;99.90;;;;;;5003208;28;20383;-65
2023/12/23 00:41:54;;;;;;;0.55;0.20;;;3.40;99.90;;;;;;5001167;28;20030;-65
2023/12/23 00:44:20;;;;;;;1.52;0.30;;;3.30;99.90;;;;;;5000941;28;20038;-65
2023/12/23 00:46:45;;;;;;;0.73;0.40;;;3.20;99.90;;;;;;5007420;28;20030;-65
2023/12/23 00:49:11;;;;;;;2.40;0.52;;;3.30;99.90;;;;;;5005827;28;20042;-65
2023/12/23 00:51:37;;;;;;;2.63;0.43;;;3.30;99.90;;;;;;5005724;28;20140;-65
2023/12/23 00:54:03;;;;;;;2.55;0.50;;;3.20;99.90;;;;;;5005396;28;20814;-65
2023/12/23 00:56:29;;;;;;;1.15;0.20;;;3.10;99.90;;;;;;5000259;28;20034;-65
2023/12/23 00:58:55;;;;;;;5.35;0.70;;;3.10;99.90;;;;;;5007247;28;20025;-65
2023/12/23 01:01:21;;;;;;;2.03;0.40;;;3.10;99.90;;;;;;5004249;28;20104;-65
2023/12/23 01:03:47;;;;;;;0.50;0.30;;;3.10;99.90;;;;;;5004386;28;20026;-65
2023/12/23 01:06:13;;;;;;;4.05;0.30;;;3.00;99.90;;;;;;5004276;28;20113;-65
2023/12/23 01:08:38;;;;;;;3.50;0.32;;;2.90;99.90;;;;;;5002588;28;20465;-65
2023/12/23 01:11:04;;;;;;;0.80;0.20;;;2.90;99.90;;;;;;5004187;28;20117;-65
2023/12/23 01:13:30;;;;;;;3.63;0.47;;;3.00;99.90;;;;;;5007770;28;20076;-65
2023/12/23 01:15:56;;;;;;;3.35;0.38;;;2.90;99.90;;;;;;5004697;28;20119;-65
2023/12/23 01:18:21;;;;;;;3.55;0.60;;;2.90;99.90;;;;;;5007593;28;20041;-65
2023/12/23 01:20:47;;;;;;;3.15;0.40;;;2.90;99.90;;;;;;5006397;28;20041;-65
2023/12/23 01:23:13;;;;;;;2.00;0.85;;;2.90;99.90;;;;;;5005394;28;20060;-65
2023/12/23 01:25:39;;;;;;;2.55;0.50;;;2.90;99.90;;;;;;5000061;28;20506;-65
2023/12/23 01:28:05;;;;;;;2.35;0.60;;;2.90;99.90;;;;;;5003249;28;20030;-65
2023/12/23 01:30:34;;;;;;;3.83;0.52;;;3.00;99.90;;;;;;5004581;28;20539;-65
2023/12/23 01:33:00;;;;;;;2.03;0.40;;;3.00;99.90;;;;;;5004994;28;20100;-65
2023/12/23 01:35:26;;;;;;;1.60;0.30;;;3.10;99.90;;;;;;5005289;28;20030;-65
2023/12/23 01:37:52;;;;;;;1.60;0.30;;;3.20;99.90;;;;;;5002139;28;20704;-65
2023/12/23 01:40:18;;;;;;;7.18;0.93;;;3.40;99.90;;;;;;5004765;28;20026;-65
2023/12/23 01:42:44;;;;;;;6.00;1.10;;;3.40;99.90;;;;;;5005799;28;20463;-65
2023/12/23 01:45:11;;;;;;;5.18;0.95;;;3.50;99.90;;;;;;5006629;28;20030;-65
2023/12/23 01:47:41;;;;;;;3.85;0.50;;;3.50;99.90;;;;;;5003519;28;20042;-64
2023/12/23 01:50:10;;;;;;;1.45;0.40;;;3.60;99.90;;;;;;5003056;28;20046;-65
2023/12/23 01:52:38;;;;;;;1.52;0.40;;;3.60;99.90;;;;;;5002044;28;20493;-65
2023/12/23 01:55:05;;;;;;;4.05;0.22;;;3.70;99.90;;;;;;5003450;28;20025;-65
2023/12/23 01:57:33;;;;;;;2.72;0.20;;;3.70;99.90;;;;;;5004453;28;20025;-64
2023/12/23 01:59:58;;;;;;;2.22;0.65;;;3.60;99.90;;;;;;5002025;28;20129;-64
2023/12/23 02:02:25;;;;;;;1.73;0.88;;;3.70;99.90;;;;;;5000535;28;20101;-65
2023/12/23 02:04:51;;;;;;;4.53;0.40;;;3.70;99.90;;;;;;5005023;28;20029;-65
2023/12/23 02:07:17;;;;;;;5.00;0.50;;;3.70;99.90;;;;;;5004435;28;20858;-65
2023/12/23 02:09:44;;;;;;;4.43;0.50;;;3.70;99.90;;;;;;5001112;28;20045;-65
2023/12/23 02:12:47;;;;;;;6.03;0.43;;;3.80;99.90;;;;;;5000886;28;20490;-65
2023/12/23 02:15:15;;;;;;;1.10;0.40;;;3.80;99.90;;;;;;5004599;28;20021;-65
2023/12/23 02:17:41;;;;;;;2.10;0.30;;;3.70;99.90;;;;;;5003858;28;20467;-65
2023/12/23 02:20:07;;;;;;;0.20;0.00;;;3.80;99.90;;;;;;4998815;28;20115;-65
2023/12/23 02:22:34;;;;;;;2.47;0.50;;;3.80;99.90;;;;;;5002176;28;20030;-65
2023/12/23 02:25:00;;;;;;;3.97;0.60;;;3.90;99.90;;;;;;5001612;28;20135;-65
2023/12/23 02:27:45;;;;;;;1.95;0.85;;;3.90;99.90;;;;;;5004428;28;20486;-65
2023/12/23 02:30:14;;;;;;;2.92;0.40;;;3.90;99.90;;;;;;5003434;28;20129;-65
2023/12/23 02:32:42;;;;;;;1.98;0.80;;;4.00;99.90;;;;;;5004240;28;20494;-65
2023/12/23 02:35:09;;;;;;;5.90;0.60;;;4.00;99.90;;;;;;5005452;28;20532;-65
2023/12/23 02:37:34;;;;;;;3.83;0.40;;;4.00;99.90;;;;;;4987980;28;20044;-65
2023/12/23 02:40:00;;;;;;;2.78;0.57;;;4.00;99.90;;;;;;5003252;28;20030;-65
2023/12/23 02:42:26;;;;;;;4.32;0.80;;;4.00;99.90;;;;;;5004070;28;20108;-65
2023/12/23 02:44:52;;;;;;;2.00;0.45;;;4.00;99.90;;;;;;5004376;28;20037;-65
2023/12/23 02:47:17;;;;;;;2.53;0.38;;;4.00;99.90;;;;;;5001599;28;20030;-64
2023/12/23 02:49:43;;;;;;;3.35;0.65;;;3.90;99.90;;;;;;5003833;28;20050;-65
2023/12/23 02:52:09;;;;;;;4.20;0.50;;;3.90;99.90;;;;;;5003623;28;20029;-65
2023/12/23 02:54:35;;;;;;;4.50;0.52;;;3.80;99.90;;;;;;5005518;28;20057;-65
2023/12/23 02:57:00;;;;;;;2.55;0.50;;;3.80;99.90;;;;;;5001424;28;20049;-65
2023/12/23 02:59:26;;;;;;;4.65;0.63;;;3.80;99.90;;;;;;5003862;28;20018;-65
2023/12/23 03:01:53;;;;;;;2.60;0.60;;;3.80;99.90;;;;;;5002233;28;20027;-65
2023/12/23 03:04:19;;;;;;;4.43;0.38;;;3.80;99.90;;;;;;5008101;28;20038;-64
2023/12/23 03:06:44;;;;;;;4.03;0.50;;;3.80;99.90;;;;;;5000917;28;20038;-65
2023/12/23 03:09:10;;;;;;;4.97;0.57;;;3.80;99.90;;;;;;5005980;28;20140;-65
2023/12/23 03:11:37;;;;;;;7.00;1.00;;;3.80;99.90;;;;;;5006971;28;20788;-65
2023/12/23 03:14:04;;;;;;;1.60;0.50;;;3.70;99.90;;;;;;5007709;28;20049;-65
2023/12/23 03:16:33;;;;;;;4.18;0.63;;;3.60;99.90;;;;;;5006631;28;20030;-65
2023/12/23 03:19:05;;;;;;;2.45;0.70;;;3.60;99.90;;;;;;5003838;28;20029;-65
2023/12/23 03:21:31;;;;;;;3.55;0.50;;;3.70;99.90;;;;;;5007733;28;20764;-65
2023/12/23 03:23:57;;;;;;;4.35;0.85;;;3.70;99.90;;;;;;5004549;28;20033;-65
2023/12/23 03:26:24;;;;;;;6.28;0.70;;;3.70;99.90;;;;;;5006973;28;20036;-65
2023/12/23 03:28:50;;;;;;;10.18;0.73;;;3.70;99.90;;;;;;5005796;28;20025;-65
2023/12/23 03:31:16;;;;;;;3.50;1.00;;;3.80;99.90;;;;;;5004372;28;20088;-65
2023/12/23 03:33:42;;;;;;;4.82;0.65;;;3.80;99.90;;;;;;5006828;28;20040;-65
2023/12/23 03:36:08;;;;;;;3.85;0.43;;;3.80;99.90;;;;;;5004543;28;20117;-65
2023/12/23 03:38:34;;;;;;;12.80;0.73;;;3.80;99.90;;;;;;5004187;28;20042;-65
2023/12/23 03:40:59;;;;;;;5.93;0.68;;;3.80;99.90;;;;;;4997153;28;20156;-65
2023/12/23 03:43:25;;;;;;;4.68;0.38;;;3.80;99.90;;;;;;5007165;28;20551;-65
2023/12/23 03:45:51;;;;;;;2.50;0.30;;;3.80;99.90;;;;;;5007782;28;20034;-65
2023/12/23 03:48:17;;;;;;;3.28;0.50;;;3.90;99.90;;;;;;5007193;28;20135;-65
2023/12/23 03:50:43;;;;;;;4.85;0.80;;;3.90;99.90;;;;;;5008486;28;20022;-65
2023/12/23 03:53:09;;;;;;;6.63;1.05;;;3.90;99.90;;;;;;5004435;28;20022;-65
2023/12/23 03:55:35;;;;;;;3.40;0.73;;;3.80;99.90;;;;;;5005145;28;20068;-65
2023/12/23 03:58:02;;;;;;;1.58;0.55;;;3.90;99.90;;;;;;5006278;28;20026;-65
2023/12/23 04:00:30;;;;;;;5.43;0.98;;;3.90;99.90;;;;;;5002501;28;20037;-65
2023/12/23 04:02:57;;;;;;;5.85;0.82;;;3.90;99.90;;;;;;5005310;28;20033;-65
2023/12/23 04:05:23;;;;;;;6.60;0.73;;;3.90;99.90;;;;;;5007150;28;20026;-65
2023/12/23 04:07:49;;;;;;;2.80;0.52;;;3.90;99.90;;;;;;5006320;28;20034;-65
2023/12/23 04:10:16;;;;;;;9.75;1.13;;;3.90;99.90;;;;;;5003584;28;20048;-65
2023/12/23 04:12:41;;;;;;;5.53;0.50;;;3.90;99.90;;;;;;4997834;28;20022;-65
2023/12/23 04:15:08;;;;;;;3.70;0.80;;;3.90;99.90;;;;;;5002517;28;20033;-65
2023/12/23 04:17:34;;;;;;;6.80;0.68;;;3.90;99.90;;;;;;5008400;28;20375;-65
2023/12/23 04:20:00;;;;;;;3.95;0.70;;;3.90;99.90;;;;;;5004142;28;20026;-65
2023/12/23 04:22:27;;;;;;;8.45;1.20;;;3.90;99.90;;;;;;5006474;28;20042;-65
2023/12/23 04:24:53;;;;;;;5.05;0.60;;;4.00;99.90;;;;;;5003457;28;20037;-65
2023/12/23 04:27:19;;;;;;;3.67;0.50;;;4.00;99.90;;;;;;5005745;28;20021;-65
2023/12/23 04:29:45;;;;;;;4.40;0.75;;;4.00;99.90;;;;;;5003491;28;20100;-65
2023/12/23 04:32:10;;;;;;;5.00;1.67;;;4.00;99.90;;;;;;5004713;28;20037;-65
2023/12/23 04:34:39;;;;;;;6.82;1.27;;;4.00;99.90;;;;;;5006377;28;20026;-65
2023/12/23 04:37:05;;;;;;;10.38;1.98;;;4.10;99.90;;;;;;5006001;28;20018;-65
2023/12/23 04:39:32;;;;;;;4.32;1.05;;;4.10;99.90;;;;;;5006496;28;20026;-65
2023/12/23 04:41:59;;;;;;;7.38;1.08;;;4.20;99.90;;;;;;5001649;28;20033;-65
2023/12/23 04:44:27;;;;;;;8.35;0.88;;;4.20;99.90;;;;;;5002655;28;20031;-65
2023/12/23 04:46:54;;;;;;;5.53;1.52;;;4.20;99.90;;;;;;5003536;28;20521;-65
2023/12/23 04:49:20;;;;;;;6.88;1.42;;;4.20;99.90;;;;;;5006065;28;20637;-65
2023/12/23 04:51:45;;;;;;;9.55;1.23;;;4.20;99.90;;;;;;5003664;28;20056;-65
2023/12/23 04:54:12;;;;;;;12.82;1.40;;;4.20;99.90;;;;;;5004990;28;20577;-65
2023/12/23 04:56:38;;;;;;;15.45;1.92;;;4.10;99.90;;;;;;5001943;28;20083;-65
2023/12/23 04:59:04;;;;;;;3.17;0.88;;;4.10;99.90;;;;;;5002447;28;20819;-65
2023/12/23 05:01:30;;;;;;;11.57;0.95;;;4.20;99.90;;;;;;5005891;28;20030;-65
2023/12/23 05:03:56;;;;;;;6.00;0.77;;;4.20;99.90;;;;;;5003529;28;20932;-65
2023/12/23 05:06:22;;;;;;;4.63;1.15;;;4.20;99.90;;;;;;5004440;28;20164;-65
2023/12/23 05:08:47;;;;;;;4.63;0.95;;;4.20;99.90;;;;;;5000211;28;20030;-65
2023/12/23 05:11:13;;;;;;;8.23;0.88;;;4.30;99.90;;;;;;5004297;28;20042;-64
2023/12/23 05:13:39;;;;;;;4.18;1.05;;;4.30;99.90;;;;;;5005703;28;20030;-65
2023/12/23 05:16:05;;;;;;;9.75;1.45;;;4.40;99.90;;;;;;5015797;28;20387;-65
2023/12/23 05:18:31;;;;;;;3.00;0.60;;;4.40;99.90;;;;;;5005002;28;20029;-65
2023/12/23 05:20:57;;;;;;;7.85;0.75;;;4.40;99.90;;;;;;4999424;28;20401;-65
2023/12/23 05:23:23;;;;;;;8.82;1.13;;;4.50;99.90;;;;;;5007156;28;20045;-65
2023/12/23 05:25:50;;;;;;;8.80;0.95;;;4.50;99.90;;;;;;5001522;28;20033;-65
2023/12/23 05:28:16;;;;;;;5.80;0.80;;;4.30;99.90;;;;;;4998974;28;20059;-65
2023/12/23 05:30:42;;;;;;;7.75;0.90;;;4.30;99.90;;;;;;5005223;28;20046;-65
2023/12/23 05:33:08;;;;;;;7.20;1.00;;;4.40;99.90;;;;;;5007164;28;20149;-65
2023/12/23 05:35:34;;;;;;;5.05;0.77;;;4.50;99.90;;;;;;5005405;28;20068;-65
2023/12/23 05:37:59;;;;;;;5.05;0.57;;;4.60;99.90;;;;;;5001685;28;20018;-65
2023/12/23 05:40:25;;;;;;;7.28;1.25;;;4.70;99.90;;;;;;5003045;28;20026;-65
2023/12/23 05:42:51;;;;;;;9.40;0.90;;;4.80;99.90;;;;;;4998714;28;20690;-65
2023/12/23 05:45:17;;;;;;;3.72;0.98;;;4.80;99.90;;;;;;5005216;28;20551;-65
2023/12/23 05:47:43;;;;;;;5.50;0.93;;;4.90;99.90;;;;;;5001895;28;20376;-65
2023/12/23 05:50:10;;;;;;;6.85;0.98;;;4.90;99.90;;;;;;5001854;28;20440;-65
2023/12/23 05:52:36;;;;;;;5.50;1.13;;;4.90;99.90;;;;;;5000804;28;20410;-65
2023/12/23 05:55:02;;;;;;;5.43;0.82;;;4.90;99.90;;;;;;5003459;28;20022;-65
2023/12/23 05:57:28;;;;;;;3.33;0.80;;;4.80;99.90;;;;;;5004110;28;20037;-65
2023/12/23 05:59:53;;;;;;;3.30;0.60;;;4.90;99.90;;;;;;4999490;28;20026;-65
2023/12/23 06:02:19;;;;;;;4.20;0.73;;;4.90;99.90;;;;;;5005941;28;20030;-64
2023/12/23 06:04:45;;;;;;;5.88;1.30;;;4.90;99.90;;;;;;5002486;28;20109;-65
2023/12/23 06:07:11;;;;;;;16.13;4.35;;;4.90;99.90;;;;;;5003582;28;20031;-65
2023/12/23 06:09:36;;;;;;;7.82;2.60;;;4.90;99.90;;;;;;5000363;28;20167;-65
2023/12/23 06:12:03;;;;;;;10.32;3.70;;;5.00;99.90;;;;;;5002412;28;20030;-65
2023/12/23 06:14:28;;;;;;;11.60;2.53;;;5.00;99.90;;;;;;5004539;28;20405;-65
2023/12/23 06:16:54;;;;;;;6.32;1.52;;;5.00;99.90;;;;;;5000490;28;20036;-64
2023/12/23 06:19:20;;;;;;;4.38;2.03;;;5.10;99.90;;;;;;5001903;28;20441;-65
2023/12/23 06:21:46;;;;;;;10.23;1.60;;;5.10;99.90;;;;;;5003893;28;20397;-65
2023/12/23 06:24:15;;;;;;;9.13;1.52;;;5.00;99.90;;;;;;5002376;28;20030;-65
2023/12/23 06:26:41;;;;;;;9.55;1.67;;;5.00;99.90;;;;;;5005778;28;20032;-65
2023/12/23 06:29:07;;;;;;;5.32;1.08;;;4.90;99.90;;;;;;5005901;28;20041;-65
2023/12/23 06:31:33;;;;;;;4.15;1.10;;;5.00;99.90;;;;;;5005711;28;20033;-66
2023/12/23 06:33:59;;;;;;;7.25;1.30;;;5.00;99.90;;;;;;5000062;28;20118;-66
2023/12/23 06:36:25;;;;;;;8.05;1.10;;;5.00;99.90;;;;;;4997134;28;20028;-66
2023/12/23 06:38:51;;;;;;;6.75;0.90;;;5.00;99.90;;;;;;5004735;28;20402;-66
2023/12/23 06:41:17;;;;;;;8.70;1.42;;;5.00;99.90;;;;;;5003968;28;20116;-66
2023/12/23 06:43:42;;;;;;;7.85;0.85;;;5.00;99.90;;;;;;5004721;28;20034;-66
2023/12/23 06:46:11;;;;;;;12.13;3.15;;;5.00;99.90;;;;;;5000608;28;20517;-66
2023/12/23 06:48:38;;;;;;;6.53;1.25;;;4.90;99.90;;;;;;5004218;28;20114;-66
2023/12/23 06:51:04;;;;;;;6.28;1.20;;;4.90;99.90;;;;;;5003658;28;20528;-66
2023/12/23 06:53:30;;;;;;;6.93;1.98;;;4.90;99.90;;;;;;5001464;28;20056;-66
2023/12/23 06:55:56;;;;;;;4.60;1.33;;;4.90;99.90;;;;;;4996858;28;20050;-66
2023/12/23 06:58:26;;;;;;;10.77;2.28;;;5.00;99.90;;;;;;4997911;28;20057;-66
2023/12/23 07:00:52;;;;;;;7.75;2.10;;;5.00;99.90;;;;;;5003797;28;20036;-66
2023/12/23 07:03:18;;;;;;;12.85;2.28;;;5.00;99.90;;;;;;5003503;28;20120;-66
2023/12/23 07:05:44;;;;;;;8.07;1.85;;;5.00;99.90;;;;;;5002927;28;20140;-66
2023/12/23 07:08:09;;;;;;;19.25;5.03;;;5.10;99.90;;;;;;5005483;28;20026;-66
2023/12/23 07:10:35;;;;;;;7.32;1.77;;;5.10;99.90;;;;;;5003767;28;20478;-65
2023/12/23 07:13:01;;;;;;;9.70;1.40;;;5.10;99.90;;;;;;5001876;28;20032;-65
2023/12/23 07:15:27;;;;;;;9.93;1.52;;;5.10;99.90;;;;;;5005408;28;20112;-66
2023/12/23 07:17:53;;;;;;;8.30;1.55;;;5.20;99.90;;;;;;5005478;28;20034;-65
2023/12/23 07:20:19;;;;;;;6.78;2.15;;;5.20;99.90;;;;;;5000988;28;20025;-66
2023/12/23 07:22:45;;;;;;;6.53;1.80;;;5.20;99.90;;;;;;5005550;28;20037;-66
2023/12/23 07:25:10;;;;;;;7.15;1.63;;;5.10;99.90;;;;;;5005315;28;20704;-66
2023/12/23 07:27:36;;;;;;;4.68;1.40;;;5.00;99.90;;;;;;5005392;28;20026;-66
2023/12/23 07:30:03;;;;;;;3.60;1.38;;;5.00;99.90;;;;;;5005165;28;20057;-66
2023/12/23 07:32:28;;;;;;;10.27;1.60;;;5.00;99.90;;;;;;5004574;28;20069;-66
2023/12/23 07:34:54;;;;;;;10.77;2.38;;;4.90;99.90;;;;;;5004198;28;20418;-66
2023/12/23 07:37:20;;;;;;;9.05;2.78;;;4.90;99.90;;;;;;5000730;28;20026;-66
2023/12/23 07:39:46;;;;;;;5.25;1.65;;;4.90;99.90;;;;;;4999947;28;20058;-66
2023/12/23 07:42:12;;;;;;;6.45;1.20;;;4.90;99.90;;;;;;5001157;28;20738;-66
2023/12/23 07:44:38;;;;;;;2.75;0.98;;;4.90;99.90;;;;;;5004740;28;20080;-66
2023/12/23 07:47:05;;;;;;;5.75;1.38;;;4.90;99.90;;;;;;5002731;28;20034;-66
2023/12/23 07:49:32;;;;;;;10.95;1.73;;;4.90;99.90;;;;;;5008079;28;20060;-66
2023/12/23 07:51:58;;;;;;;12.32;2.90;;;4.90;99.90;;;;;;5001438;28;20044;-65
2023/12/23 07:54:24;;;;;;;15.43;5.28;;;5.00;99.90;;;;;;5008173;28;20642;-66
2023/12/23 07:56:50;;;;;;;8.98;2.60;;;5.00;99.90;;;;;;5007732;28;20076;-66
2023/12/23 07:59:16;;;;;;;3.83;1.70;;;4.90;99.90;;;;;;5006165;28;20076;-66
2023/12/23 08:01:45;;;;;;;5.47;1.58;;;4.90;99.90;;;;;;5007961;28;20522;-65
2023/12/23 08:04:12;;;;;;;6.20;1.40;;;4.90;99.90;;;;;;5008364;28;20108;-65
2023/12/23 08:06:38;;;;;;;20.15;7.90;;;4.90;99.90;;;;;;5008466;28;20030;-66
2023/12/23 08:09:04;;;;;;;5.78;2.47;;;4.90;99.90;;;;;;5006457;28;20041;-66
2023/12/23 08:11:30;;;;;;;6.25;1.38;;;5.00;99.90;;;;;;4998593;28;20375;-65
2023/12/23 08:13:56;;;;;;;6.32;2.13;;;5.00;99.90;;;;;;5005039;28;20053;-65
2023/12/23 08:16:22;;;;;;;2.33;0.90;;;4.90;99.90;;;;;;5000407;28;20057;-66
2023/12/23 08:18:48;;;;;;;1.13;0.52;;;4.90;99.90;;;;;;5005169;28;20650;-66
2023/12/23 08:21:14;;;;;;;3.35;0.90;;;4.90;99.90;;;;;;5007892;28;20096;-66
2023/12/23 08:23:40;;;;;;;3.50;1.15;;;4.90;99.90;;;;;;5006524;28;20037;-66
2023/12/23 08:26:06;;;;;;;5.68;1.90;;;5.00;99.90;;;;;;5002574;28;20441;-66
2023/12/23 08:28:31;;;;;;;2.95;1.00;;;4.90;99.90;;;;;;5007145;28;20076;-66
2023/12/23 08:30:57;;;;;;;6.57;1.88;;;4.80;99.90;;;;;;5007826;28;20413;-66
2023/12/23 08:33:23;;;;;;;3.72;1.20;;;4.80;99.90;;;;;;5005739;28;20025;-65
2023/12/23 08:35:49;;;;;;;4.45;1.58;;;4.80;99.90;;;;;;5001277;28;20092;-66
2023/12/23 08:38:14;;;;;;;2.60;1.02;;;4.80;99.90;;;;;;5007165;28;20025;-65
2023/12/23 08:40:40;;;;;;;6.38;2.33;;;4.90;99.90;;;;;;5007774;28;20061;-66
2023/12/23 08:43:06;;;;;;;6.63;1.25;;;5.00;99.90;;;;;;5005089;28;20129;-66
2023/12/23 08:45:32;;;;;;;5.28;1.10;;;5.00;99.90;;;;;;5004648;28;20130;-65
2023/12/23 08:47:57;;;;;;;5.28;1.20;;;4.90;99.90;;;;;;4998580;28;20038;-66
2023/12/23 08:50:23;;;;;;;5.35;1.70;;;4.90;99.90;;;;;;5006927;28;20699;-66
2023/12/23 08:52:49;;;;;;;6.30;1.10;;;4.90;99.90;;;;;;5005230;28;20033;-66
2023/12/23 08:55:15;;;;;;;3.67;0.80;;;5.00;99.90;;;;;;5006834;28;20038;-66
2023/12/23 08:57:41;;;;;;;8.18;0.82;;;5.00;99.90;;;;;;5005465;28;20029;-66
2023/12/23 09:00:07;;;;;;;4.30;0.63;;;5.10;99.90;;;;;;5005217;28;20522;-66
2023/12/23 09:02:34;;;;;;;0.82;0.43;;;5.20;99.90;;;;;;5005172;28;20156;-66
2023/12/23 09:05:00;;;;;;;2.28;0.98;;;5.20;99.90;;;;;;5007425;28;20022;-66
2023/12/23 09:07:26;;;;;;;2.50;1.60;;;5.20;99.90;;;;;;5007703;28;20028;-66
2023/12/23 09:09:52;;;;;;;7.63;1.60;;;5.30;99.90;;;;;;5003993;28;20041;-66
2023/12/23 09:12:19;;;;;;;1.33;0.77;;;5.40;99.90;;;;;;5006937;28;20092;-65
2023/12/23 09:14:51;;;;;;;5.53;1.67;;;5.40;99.90;;;;;;5005501;28;20029;-66
2023/12/23 09:17:17;;;;;;;3.78;0.90;;;5.30;99.90;;;;;;5004417;28;20033;-66
2023/12/23 09:19:43;;;;;;;1.75;0.75;;;5.30;99.90;;;;;;5001356;28;20384;-66
2023/12/23 09:22:08;;;;;;;2.40;0.70;;;5.20;99.90;;;;;;5003545;28;20034;-66
2023/12/23 09:24:35;;;;;;;2.40;1.15;;;5.20;99.90;;;;;;5006953;28;20121;-66
2023/12/23 09:27:01;;;;;;;0.90;0.80;;;5.20;99.90;;;;;;5005387;28;20053;-65
2023/12/23 09:29:27;;;;;;;3.47;1.50;;;5.20;99.90;;;;;;5006758;28;20158;-66
2023/12/23 09:31:52;;;;;;;2.05;0.75;;;5.20;99.90;;;;;;5006822;28;20116;-66
2023/12/23 09:34:20;;;;;;;2.08;0.90;;;5.20;99.90;;;;;;5005734;28;20113;-65
2023/12/23 09:36:46;;;;;;;2.28;0.90;;;5.20;99.90;;;;;;5007024;28;20029;-66
2023/12/23 09:39:12;;;;;;;1.50;1.02;;;5.30;99.90;;;;;;5006683;28;20029;-66
2023/12/23 09:41:40;;;;;;;1.05;0.90;;;5.30;99.90;;;;;;5006662;28;20212;-66
2023/12/23 09:44:06;;;;;;;1.75;0.70;;;5.40;99.90;;;;;;5002554;28;20033;-66
2023/12/23 09:46:32;;;;;;;2.95;1.58;;;5.30;99.90;;;;;;5006627;28;20080;-66
2023/12/23 09:48:58;;;;;;;3.10;0.90;;;5.30;99.90;;;;;;5006520;28;20471;-66
2023/12/23 09:51:27;;;;;;;4.30;1.23;;;5.30;99.90;;;;;;5006784;28;20034;-65
2023/12/23 09:53:58;;;;;;;3.22;2.22;;;5.10;99.90;;;;;;5002864;28;20038;-66
2023/12/23 09:56:29;;;;;;;2.03;1.15;;;5.10;99.90;;;;;;5001766;28;20083;-66
2023/12/23 09:58:55;;;;;;;3.47;1.05;;;5.20;99.90;;;;;;5006690;28;20120;-66
2023/12/23 10:01:21;;;;;;;3.40;0.75;;;5.20;99.90;;;;;;5004444;28;20034;-66
2023/12/23 10:03:47;;;;;;;2.58;0.63;;;5.20;99.90;;;;;;5000106;28;20065;-66
2023/12/23 10:06:16;;;;;;;3.40;0.75;;;5.20;99.90;;;;;;4997221;28;20471;-65
2023/12/23 10:08:42;;;;;;;2.35;0.80;;;5.20;99.90;;;;;;5006288;28;20025;-66
2023/12/23 10:11:08;;;;;;;1.23;0.50;;;5.10;99.90;;;;;;5004068;28;20076;-66
2023/12/23 10:13:34;;;;;;;1.70;0.65;;;5.00;99.90;;;;;;5006228;28;20060;-66
2023/12/23 10:16:00;;;;;;;1.38;0.60;;;4.90;99.90;;;;;;5006072;28;20038;-66
2023/12/23 10:18:26;;;;;;;2.75;0.88;;;4.90;99.90;;;;;;5006180;28;20029;-66
2023/12/23 10:20:52;;;;;;;2.05;0.90;;;5.00;99.90;;;;;;5002647;28;20071;-65
2023/12/23 10:23:17;;;;;;;0.98;0.70;;;4.90;99.90;;;;;;4979925;28;20080;-66
2023/12/23 10:25:44;;;;;;;1.40;1.00;;;5.00;99.90;;;;;;5006050;28;20041;-66
2023/12/23 10:28:11;;;;;;;2.25;1.10;;;5.10;99.90;;;;;;5005971;28;20386;-65
2023/12/23 10:30:46;;;;;;;2.78;0.80;;;5.00;99.90;;;;;;5005814;28;20087;-66
2023/12/23 10:33:14;;;;;;;1.48;0.80;;;5.00;99.90;;;;;;4985327;28;20033;-66
2023/12/23 10:35:48;;;;;;;3.03;0.57;;;5.00;99.90;;;;;;5005423;28;20034;-66
2023/12/23 10:38:21;;;;;;;1.00;0.65;;;5.10;99.90;;;;;;5005658;28;20699;-66
2023/12/23 10:40:54;;;;;;;0.73;0.60;;;5.10;99.90;;;;;;4999751;28;20929;-66
2023/12/23 10:43:20;;;;;;;3.20;1.10;;;5.10;99.90;;;;;;5003615;28;20080;-66
2023/12/23 10:45:51;;;;;;;2.60;1.05;;;5.10;99.90;;;;;;5005766;28;20054;-66
2023/12/23 10:48:20;;;;;;;3.15;0.93;;;5.20;99.90;;;;;;4999666;28;20069;-66
2023/12/23 10:50:47;;;;;;;3.33;1.20;;;5.20;99.90;;;;;;5004511;28;20457;-66
2023/12/23 10:53:17;;;;;;;4.15;1.25;;;5.20;99.90;;;;;;5004557;28;20043;-66
2023/12/23 10:55:45;;;;;;;1.27;0.98;;;5.30;99.90;;;;;;5005593;28;20030;-66
2023/12/23 10:58:12;;;;;;;5.35;1.35;;;5.30;99.90;;;;;;5005782;28;20061;-66
2023/12/23 11:00:38;;;;;;;1.65;1.15;;;5.30;99.90;;;;;;5005151;28;20030;-66
2023/12/23 11:03:07;;;;;;;2.65;1.02;;;5.20;99.90;;;;;;4996986;28;20052;-65
2023/12/23 11:05:36;;;;;;;3.85;1.50;;;5.30;99.90;;;;;;5005447;28;20038;-66
2023/12/23 11:08:06;;;;;;;4.30;1.52;;;5.30;99.90;;;;;;5005622;28;20041;-67
2023/12/23 11:10:33;;;;;;;3.65;1.88;;;5.30;99.90;;;;;;5003728;28;20543;-66
2023/12/23 11:13:00;;;;;;;3.17;1.60;;;5.40;99.90;;;;;;4998252;28;20080;-66
2023/12/23 11:15:26;;;;;;;4.03;1.48;;;5.40;99.90;;;;;;5005443;28;20081;-66
2023/12/23 11:17:54;;;;;;;4.00;1.30;;;5.30;99.90;;;;;;5005051;28;20584;-66
2023/12/23 11:20:35;;;;;;;47.10;10.68;;;5.30;99.90;;;;;;4997118;28;20081;-66
2023/12/23 11:23:26;;;;;;;8.55;2.65;;;5.30;99.90;;;;;;5006016;28;20062;-65
2023/12/23 11:25:52;;;;;;;4.40;0.88;;;5.30;99.90;;;;;;5009358;28;20069;-66
2023/12/23 11:28:19;;;;;;;1.27;0.50;;;5.30;99.90;;;;;;4998835;28;20034;-66
2023/12/23 11:30:48;;;;;;;0.50;0.47;;;5.40;99.90;;;;;;5008500;28;20156;-66
2023/12/23 11:33:17;;;;;;;1.95;1.20;;;5.40;99.90;;;;;;5005861;28;20065;-67
2023/12/23 11:35:59;;;;;;;2.55;1.40;;;5.40;99.90;;;;;;5004425;28;20080;-67
2023/12/23 11:38:29;;;;;;;1.95;0.93;;;5.30;99.90;;;;;;5003394;28;20124;-66
2023/12/23 11:40:55;;;;;;;2.10;0.77;;;5.40;99.90;;;;;;5008732;28;20406;-66
2023/12/23 11:43:22;;;;;;;1.00;0.60;;;5.40;99.90;;;;;;5008727;28;20036;-67
2023/12/23 11:45:49;;;;;;;3.38;0.50;;;5.40;99.90;;;;;;5007097;28;20127;-67
2023/12/23 11:48:18;;;;;;;0.45;0.40;;;5.50;99.90;;;;;;5006517;28;20046;-67
2023/12/23 11:50:44;;;;;;;3.22;1.50;;;5.50;99.90;;;;;;5008370;28;20048;-67
2023/12/23 11:53:10;;;;;;;1.27;1.05;;;5.60;99.90;;;;;;5008021;28;20605;-67
2023/12/23 11:55:37;;;;;;;2.40;0.90;;;5.60;99.90;;;;;;5004612;28;20116;-66
2023/12/23 11:58:04;;;;;;;6.70;4.45;;;5.60;99.90;;;;;;5008742;28;20026;-67
2023/12/23 12:00:31;;;;;;;2.03;1.65;;;5.60;99.90;;;;;;5008043;28;20038;-67
2023/12/23 12:02:57;;;;;;;4.40;3.55;;;5.60;99.90;;;;;;5008351;28;20854;-67
2023/12/23 12:05:25;;;;;;;4.32;3.60;;;5.50;99.90;;;;;;5008478;28;20022;-67
2023/12/23 12:07:50;;;;;;;2.72;2.10;;;5.50;99.90;;;;;;5007484;28;20030;-67
2023/12/23 12:10:16;;;;;;;3.72;1.90;;;5.40;99.90;;;;;;5001367;28;20036;-67
2023/12/23 12:12:42;;;;;;;2.08;1.75;;;5.50;99.90;;;;;;5002623;28;20570;-67
2023/12/23 12:15:09;;;;;;;3.38;1.50;;;5.50;99.90;;;;;;5008082;28;20025;-67
2023/12/23 12:17:34;;;;;;;1.08;0.50;;;5.60;99.90;;;;;;5007032;28;20069;-67
2023/12/23 12:20:00;;;;;;;0.63;0.40;;;5.50;99.90;;;;;;5008079;28;20064;-66
2023/12/23 12:22:26;;;;;;;0.52;0.52;;;5.50;99.90;;;;;;5006001;28;20590;-67
2023/12/23 12:24:52;;;;;;;2.10;0.98;;;5.50;99.90;;;;;;5005511;28;20022;-67
2023/12/23 12:27:18;;;;;;;2.45;1.13;;;5.50;99.90;;;;;;5004676;28;20790;-67
2023/12/23 12:29:43;;;;;;;1.83;0.98;;;5.50;99.90;;;;;;5007383;28;20528;-67
2023/12/23 12:32:15;;;;;;;2.20;1.25;;;5.60;99.90;;;;;;5007661;28;20038;-68
2023/12/23 12:34:41;;;;;;;1.00;0.90;;;5.60;99.90;;;;;;5005544;28;20390;-66
2023/12/23 12:37:08;;;;;;;1.17;0.73;;;5.60;99.90;;;;;;4998610;28;20026;-65
2023/12/23 12:39:34;;;;;;;1.08;0.80;;;5.70;99.90;;;;;;5003727;28;20037;-66
2023/12/23 12:42:00;;;;;;;1.58;1.20;;;5.70;99.90;;;;;;5005430;28;20041;-66
2023/12/23 12:44:26;;;;;;;0.75;0.70;;;5.80;99.90;;;;;;5006946;28;20509;-65
2023/12/23 12:46:55;;;;;;;1.02;0.60;;;5.80;99.90;;;;;;5002256;28;20081;-66
2023/12/23 12:49:23;;;;;;;1.38;0.70;;;5.80;99.90;;;;;;5001708;28;20029;-66
2023/12/23 12:51:50;;;;;;;1.27;0.90;;;5.80;99.90;;;;;;5001539;28;20509;-66